KGRD

Details ICAO KGRD
Name GREENWOOD CO
Region United States
Timezone America/New_York (UTC-5.0)
Plans Departing 2
Arriving 2
Stats Elevation 631 ft / 192 m (AMSL)
Location 34.248731° -82.159070°
Runways 1
Magnetic Variation 6.727° W
Sunrise 2017-12-17 12:30:05 UTC / 2017-12-17 07:30:05 Local
Sunset 2017-12-17 22:22:23 UTC / 2017-12-17 17:22:23 Local
Advertisement - Login to hide

Runways

ID Width Length Bearing (true) Bearing (mag) Surface Threshold Offset Overrun Length
09 100 ft / 30 m 4,994 ft / 1,522 m 85.17° 91.90° Asphalt 0 ft / 0 m 0 ft / 0 m
27 100 ft / 30 m 4,994 ft / 1,522 m 265.18° 271.91° Asphalt 0 ft / 0 m 0 ft / 0 m

Map

Weather


0- 5 10 15 20 25 30 35+ Temperature / ° C

Clouds and Precipitation
Forecast for 2017-12-18 00:00 UTC. Updated an hour ago

Ground ~20,000 ft ~40,000 ft Winds

METAR

KGRD 171956Z AUTO 19003KT 10SM BKN110 12/M01 A3021 RMK AO2 SLP231 T01171006

TAF

Not found

Frequencies

Recorded 121.12 MHz ASOS
Approach 120.60 MHz GREER APP/DEP
Unicom 122.80 MHz CTAF/UNICOM
Warning: Do not use this data for real-world aviation or navigation. No guarantee of current accuracy is given.